createdAt,value
2022-09-22T00:01:25.041Z,74.75
2022-09-22T00:03:57.746Z,74.67
2022-09-22T00:06:28.966Z,75.03
2022-09-22T00:09:00.682Z,75.15
2022-09-22T00:11:36.290Z,75.25
2022-09-22T00:14:10.084Z,75.18
2022-09-22T00:16:46.599Z,75.33
2022-09-22T00:19:22.947Z,75.48
2022-09-22T00:21:50.638Z,75.52
2022-09-22T00:24:19.914Z,75.65
2022-09-22T00:26:46.699Z,75.65
2022-09-22T00:29:13.714Z,75.95
2022-09-22T00:31:42.126Z,75.96
2022-09-22T00:34:19.070Z,76.11
2022-09-22T00:36:46.746Z,76.25
2022-09-22T00:39:14.870Z,76.15
2022-09-22T00:41:44.919Z,76.53
2022-09-22T00:44:26.703Z,76.60
2022-09-22T00:46:56.570Z,76.58
2022-09-22T00:49:31.501Z,76.84
2022-09-22T00:51:58.214Z,76.94
2022-09-22T00:54:24.967Z,77.03
2022-09-22T00:57:08.181Z,77.05
2022-09-22T00:59:36.284Z,77.15
2022-09-22T01:02:03.357Z,77.29
2022-09-22T01:04:30.231Z,77.55
2022-09-22T01:06:58.549Z,77.55
2022-09-22T01:09:25.988Z,77.69
2022-09-22T01:11:53.022Z,78.08
2022-09-22T01:14:25.830Z,78.13
2022-09-22T01:17:40.976Z,78.22
2022-09-22T01:20:33.906Z,78.32
2022-09-22T01:23:37.944Z,78.25
2022-09-22T01:26:07.296Z,78.34
2022-09-22T01:28:55.384Z,78.54
2022-09-22T01:31:51.233Z,78.56
2022-09-22T01:34:30.181Z,78.69
2022-09-22T01:37:24.820Z,78.96
2022-09-22T01:39:54.547Z,78.88
2022-09-22T01:42:37.318Z,79.10
2022-09-22T01:45:07.901Z,79.06
2022-09-22T01:47:41.102Z,79.23
2022-09-22T01:50:32.590Z,79.21
2022-09-22T01:53:03.422Z,79.32
2022-09-22T01:55:39.025Z,79.44
2022-09-22T01:58:12.150Z,79.44
2022-09-22T02:00:44.189Z,79.55
2022-09-22T02:03:14.816Z,79.82
2022-09-22T02:05:47.652Z,79.87
2022-09-22T02:08:20.423Z,80.05
2022-09-22T02:10:48.720Z,79.91
2022-09-22T02:13:15.510Z,80.18
2022-09-22T02:16:01.577Z,80.20
2022-09-22T02:18:54.145Z,80.99
2022-09-22T02:21:22.510Z,80.95
2022-09-22T02:23:49.933Z,80.97
2022-09-22T02:26:24.152Z,81.37
2022-09-22T02:29:05.089Z,82.01
2022-09-22T02:31:36.055Z,82.09
2022-09-22T02:34:05.319Z,82.43
2022-09-22T02:37:05.714Z,83.02
2022-09-22T02:40:07.811Z,83.36
2022-09-22T02:42:43.837Z,83.34
2022-09-22T02:45:13.426Z,83.73
2022-09-22T02:47:52.048Z,84.30
2022-09-22T02:50:23.018Z,84.27
2022-09-22T02:52:53.402Z,84.70
2022-09-22T02:55:20.215Z,84.83
2022-09-22T02:57:46.955Z,85.08
2022-09-22T03:02:54.998Z,85.10
2022-09-22T03:05:21.914Z,85.36
2022-09-22T03:07:49.288Z,85.70
2022-09-22T03:10:16.254Z,85.65
2022-09-22T03:13:09.135Z,86.06
2022-09-22T03:15:30.969Z,86.00
2022-09-22T03:17:57.750Z,86.11
2022-09-22T03:20:24.494Z,86.31
2022-09-22T03:22:54.867Z,86.32
2022-09-22T03:25:21.678Z,86.46
2022-09-22T03:27:48.393Z,86.74
2022-09-22T03:30:15.060Z,86.74
2022-09-22T03:32:41.852Z,87.20
2022-09-22T03:35:09.289Z,87.28
2022-09-22T03:37:36.467Z,87.49
2022-09-22T03:40:04.546Z,87.67
2022-09-22T03:42:32.956Z,88.00
2022-09-22T03:44:59.968Z,88.14
2022-09-22T03:47:26.736Z,88.27
2022-09-22T03:49:53.417Z,88.44
2022-09-22T03:52:20.601Z,88.63
2022-09-22T03:54:47.964Z,88.54
2022-09-22T03:57:15.030Z,88.81
2022-09-22T03:59:41.713Z,88.88
2022-09-22T04:02:10.888Z,89.17
2022-09-22T04:04:37.758Z,89.23
2022-09-22T04:07:07.402Z,89.66
2022-09-22T04:09:34.638Z,89.71
2022-09-22T04:12:01.559Z,89.71
2022-09-22T04:14:28.265Z,89.93
2022-09-22T04:16:55.096Z,90.20
2022-09-22T04:19:22.909Z,90.39
2022-09-22T04:21:54.619Z,90.54
2022-09-22T04:24:24.616Z,90.61
2022-09-22T04:27:17.994Z,90.75
2022-09-22T04:29:38.693Z,90.82
2022-09-22T04:32:05.779Z,91.02
2022-09-22T04:34:32.564Z,91.38
2022-09-22T04:36:59.363Z,91.35
2022-09-22T04:39:28.651Z,91.65
2022-09-22T04:41:56.637Z,91.75
2022-09-22T04:44:23.410Z,91.95
2022-09-22T04:46:51.262Z,92.01
2022-09-22T04:49:19.262Z,92.17
2022-09-22T04:51:46.074Z,92.14
2022-09-22T04:54:14.960Z,92.34
2022-09-22T04:56:42.396Z,92.47
2022-09-22T04:59:09.696Z,92.54
2022-09-22T05:01:36.545Z,92.69
2022-09-22T05:04:04.460Z,93.00
2022-09-22T05:06:31.260Z,93.02
2022-09-22T05:08:58.707Z,93.10
2022-09-22T05:11:26.541Z,93.24
2022-09-22T05:13:53.232Z,93.35
2022-09-22T05:16:20.257Z,93.62
2022-09-22T05:18:50.317Z,93.23
2022-09-22T05:21:19.703Z,93.59
2022-09-22T05:23:46.995Z,93.76
2022-09-22T05:26:15.773Z,93.69
2022-09-22T05:28:42.969Z,93.76
2022-09-22T05:31:11.629Z,93.91
2022-09-22T05:33:38.340Z,94.14
2022-09-22T05:36:05.162Z,94.26
2022-09-22T05:38:31.941Z,94.22
2022-09-22T05:40:58.728Z,94.25
2022-09-22T05:43:25.903Z,94.38
2022-09-22T05:45:52.803Z,94.62
2022-09-22T05:48:19.464Z,94.52
2022-09-22T05:50:46.190Z,94.67
2022-09-22T05:53:13.698Z,94.83
2022-09-22T05:55:41.084Z,94.97
2022-09-22T05:58:11.923Z,95.06
2022-09-22T06:00:40.199Z,95.11
2022-09-22T06:03:07.405Z,95.12
2022-09-22T06:05:37.170Z,95.27
2022-09-22T06:08:09.833Z,95.41
2022-09-22T06:10:38.586Z,95.41
2022-09-22T06:13:08.250Z,95.59
2022-09-22T06:15:36.361Z,95.56
2022-09-22T06:18:07.285Z,95.62
2022-09-22T06:20:35.388Z,95.68
2022-09-22T06:23:02.411Z,95.71
2022-09-22T06:25:29.724Z,95.79
2022-09-22T06:28:02.022Z,96.01
2022-09-22T06:30:28.855Z,96.03
2022-09-22T06:32:56.804Z,95.97
2022-09-22T06:35:24.231Z,96.03
2022-09-22T06:37:58.469Z,96.17
2022-09-22T06:40:26.398Z,96.42
2022-09-22T06:43:02.168Z,96.47
2022-09-22T06:45:29.548Z,96.36
2022-09-22T06:47:59.150Z,96.44
2022-09-22T06:50:29.447Z,96.45
2022-09-22T06:53:01.203Z,96.60
2022-09-22T06:55:31.609Z,96.49
2022-09-22T06:58:03.029Z,96.71
2022-09-22T07:00:33.263Z,96.70
2022-09-22T07:03:13.370Z,96.88
2022-09-22T07:05:40.101Z,96.89
2022-09-22T07:08:09.060Z,97.02
2022-09-22T07:10:38.957Z,97.25
2022-09-22T07:13:06.572Z,97.39
2022-09-22T07:15:34.991Z,97.73
2022-09-22T07:18:02.355Z,97.90
2022-09-22T07:20:30.586Z,97.99
2022-09-22T07:23:00.817Z,98.11
2022-09-22T07:25:29.112Z,98.40
2022-09-22T07:27:59.299Z,98.40
2022-09-22T07:30:26.389Z,98.55
2022-09-22T07:32:53.160Z,98.52
2022-09-22T07:35:19.925Z,98.28
2022-09-22T07:37:46.727Z,97.87
2022-09-22T07:40:14.707Z,97.66
2022-09-22T07:42:41.632Z,97.60
2022-09-22T07:45:12.885Z,97.21
2022-09-22T07:47:58.915Z,97.22
2022-09-22T07:50:25.744Z,97.05
2022-09-22T07:52:53.512Z,96.89
2022-09-22T07:55:25.142Z,96.88
2022-09-22T07:57:56.682Z,96.76
2022-09-22T08:00:34.537Z,96.47
2022-09-22T08:03:01.492Z,96.50
2022-09-22T08:05:29.044Z,96.54
2022-09-22T08:07:58.338Z,96.71
2022-09-22T08:10:26.215Z,96.50
2022-09-22T08:12:58.173Z,96.52
2022-09-22T08:15:27.412Z,96.58
2022-09-22T08:18:01.813Z,96.40
2022-09-22T08:20:29.262Z,96.38
2022-09-22T08:23:03.175Z,96.55
2022-09-22T08:25:30.605Z,96.54
2022-09-22T08:27:57.477Z,96.33
2022-09-22T08:30:24.324Z,96.43
2022-09-22T08:32:51.047Z,96.16
2022-09-22T08:35:18.234Z,96.39
2022-09-22T08:37:45.763Z,96.42
2022-09-22T08:40:23.817Z,96.35
2022-09-22T08:42:54.577Z,96.21
2022-09-22T08:45:34.717Z,96.41
2022-09-22T08:48:38.057Z,96.01
2022-09-22T08:51:34.217Z,95.91
2022-09-22T08:54:04.465Z,96.03
2022-09-22T08:56:57.642Z,95.84
2022-09-22T08:59:33.008Z,95.93
2022-09-22T09:02:30.611Z,95.77
2022-09-22T09:05:23.665Z,95.56
2022-09-22T09:08:19.339Z,95.41
2022-09-22T09:11:20.487Z,95.34
2022-09-22T09:14:08.434Z,95.40
2022-09-22T09:16:40.973Z,95.50
2022-09-22T09:19:16.528Z,95.48
2022-09-22T09:21:55.264Z,95.40
2022-09-22T09:27:25.235Z,95.18
2022-09-22T09:30:06.927Z,95.29
2022-09-22T09:33:00.714Z,95.31
2022-09-22T09:35:53.064Z,95.46
2022-09-22T09:38:29.832Z,95.53
2022-09-22T09:41:11.952Z,95.49
2022-09-22T09:43:42.828Z,95.49
2022-09-22T09:46:19.446Z,95.61
2022-09-22T09:49:14.945Z,95.64
2022-09-22T09:52:04.119Z,95.71
2022-09-22T09:54:31.013Z,95.73
2022-09-22T09:57:12.914Z,95.75
2022-09-22T10:00:01.223Z,95.72
2022-09-22T10:02:29.793Z,95.75
2022-09-22T10:05:02.645Z,95.89
2022-09-22T10:07:39.423Z,95.88
2022-09-22T10:10:35.916Z,96.05
2022-09-22T10:13:05.329Z,96.06
2022-09-22T10:15:40.565Z,96.12
2022-09-22T10:18:33.783Z,96.37
2022-09-22T10:21:07.325Z,96.40
2022-09-22T10:23:34.629Z,96.25
2022-09-22T10:26:14.907Z,96.19
2022-09-22T10:28:41.730Z,96.22
2022-09-22T10:31:20.464Z,96.37
2022-09-22T10:33:55.893Z,96.34
2022-09-22T10:36:26.248Z,96.54
2022-09-22T10:38:57.389Z,96.39
2022-09-22T10:41:34.417Z,96.61
2022-09-22T10:44:35.053Z,96.70
2022-09-22T10:47:27.256Z,96.54
2022-09-22T10:50:28.548Z,96.68
2022-09-22T10:53:32.122Z,96.82
2022-09-22T10:56:22.728Z,96.78
2022-09-22T10:59:19.113Z,96.73
2022-09-22T11:02:03.080Z,96.76
2022-09-22T11:04:42.945Z,96.74
2022-09-22T11:07:40.279Z,96.84
2022-09-22T11:10:31.613Z,96.97
2022-09-22T11:13:17.766Z,97.03
2022-09-22T11:16:13.411Z,96.83
2022-09-22T11:18:57.371Z,97.27
2022-09-22T11:21:43.889Z,97.11
2022-09-22T11:24:26.397Z,97.20
2022-09-22T11:26:59.857Z,97.38
2022-09-22T11:29:55.784Z,97.46
2022-09-22T11:32:40.344Z,97.46
2022-09-22T11:35:25.669Z,97.46
2022-09-22T11:38:02.325Z,97.24
2022-09-22T11:43:45.737Z,96.95
2022-09-22T11:46:33.928Z,96.90
2022-09-22T11:49:19.260Z,96.98
2022-09-22T11:51:53.827Z,97.15
2022-09-22T11:54:20.456Z,96.96
2022-09-22T11:56:53.282Z,96.86
2022-09-22T11:59:35.595Z,96.99
2022-09-22T12:02:12.186Z,96.77
2022-09-22T12:04:51.964Z,97.11
2022-09-22T12:07:28.000Z,96.98
2022-09-22T12:10:07.936Z,96.99
2022-09-22T12:12:35.265Z,97.08
2022-09-22T12:15:21.313Z,96.94
2022-09-22T12:18:05.469Z,97.12
2022-09-22T12:20:44.497Z,96.85
2022-09-22T12:23:27.533Z,96.82
2022-09-22T12:25:58.173Z,96.75
2022-09-22T12:28:28.185Z,96.77
2022-09-22T12:31:12.940Z,96.69
2022-09-22T12:33:47.695Z,96.76
2022-09-22T12:36:15.517Z,96.70
2022-09-22T12:38:43.893Z,96.59
2022-09-22T12:41:17.665Z,96.54
2022-09-22T12:43:45.944Z,96.33
2022-09-22T12:46:27.974Z,96.22
2022-09-22T12:48:54.952Z,96.13
2022-09-22T12:51:24.571Z,96.34
2022-09-22T12:53:51.764Z,96.22
2022-09-22T12:56:47.148Z,96.11
2022-09-22T12:59:35.759Z,96.27
2022-09-22T13:02:31.644Z,96.14
2022-09-22T13:04:58.709Z,96.21
2022-09-22T13:07:44.442Z,96.34
2022-09-22T13:10:23.186Z,96.44
2022-09-22T13:13:01.068Z,96.35
2022-09-22T13:15:35.160Z,96.56
2022-09-22T13:18:03.960Z,96.65
2022-09-22T13:20:33.143Z,96.32
2022-09-22T13:23:13.030Z,96.11
2022-09-22T13:25:40.441Z,96.19
2022-09-22T13:28:09.878Z,95.88
2022-09-22T13:30:38.536Z,96.12
2022-09-22T13:33:05.777Z,95.84
2022-09-22T13:35:37.673Z,95.78
2022-09-22T13:38:04.921Z,95.74
2022-09-22T13:40:34.981Z,95.75
2022-09-22T13:43:07.601Z,95.90
2022-09-22T13:45:38.649Z,95.99
2022-09-22T13:48:15.849Z,95.94
2022-09-22T13:50:59.038Z,95.91
2022-09-22T13:53:26.276Z,95.51
2022-09-22T13:55:54.266Z,95.71
2022-09-22T13:58:41.785Z,95.50
2022-09-22T14:01:20.981Z,95.39
2022-09-22T14:03:49.395Z,95.58
2022-09-22T14:06:19.386Z,95.68
2022-09-22T14:08:48.369Z,95.30
2022-09-22T14:11:27.470Z,95.31
2022-09-22T14:13:54.596Z,95.37
2022-09-22T14:16:43.622Z,95.51
2022-09-22T14:19:24.704Z,95.54
2022-09-22T14:21:52.351Z,95.79
2022-09-22T14:24:19.583Z,95.39
2022-09-22T14:26:51.295Z,95.40
2022-09-22T14:29:25.505Z,95.36
2022-09-22T14:32:19.846Z,95.23
2022-09-22T14:34:54.864Z,94.94
2022-09-22T14:37:24.934Z,94.79
2022-09-22T14:39:53.965Z,94.50
2022-09-22T14:42:31.661Z,94.28
2022-09-22T14:45:10.261Z,94.18
2022-09-22T14:47:42.490Z,93.88
2022-09-22T14:50:27.423Z,93.76
2022-09-22T14:53:06.988Z,93.44
2022-09-22T14:55:39.743Z,93.31
2022-09-22T14:58:14.773Z,93.13
2022-09-22T15:01:35.499Z,92.73
2022-09-22T15:04:25.287Z,92.19
2022-09-22T15:06:56.506Z,91.71
2022-09-22T15:09:34.203Z,91.92
2022-09-22T15:12:03.575Z,91.54
2022-09-22T15:14:45.061Z,91.38
2022-09-22T15:17:55.547Z,91.27
2022-09-22T15:20:25.218Z,91.19
2022-09-22T15:22:56.252Z,90.74
2022-09-22T15:25:24.338Z,90.58
2022-09-22T15:27:53.384Z,90.34
2022-09-22T15:30:22.161Z,90.09
2022-09-22T15:32:49.812Z,90.17
2022-09-22T15:35:18.054Z,89.68
2022-09-22T15:37:50.169Z,89.16
2022-09-22T15:40:20.628Z,88.97
2022-09-22T15:43:11.223Z,88.71
2022-09-22T15:45:37.398Z,88.63
2022-09-22T15:48:05.287Z,88.23
2022-09-22T15:50:32.607Z,88.01
2022-09-22T15:52:59.306Z,87.68
2022-09-22T15:55:26.115Z,87.01
2022-09-22T15:57:55.373Z,86.14
2022-09-22T16:00:27.251Z,85.48
2022-09-22T16:02:54.736Z,86.27
2022-09-22T16:05:21.756Z,85.72
2022-09-22T16:07:51.672Z,84.80
2022-09-22T16:10:23.577Z,83.99
2022-09-22T16:12:50.664Z,84.74
2022-09-22T16:15:18.156Z,83.52
2022-09-22T16:17:46.016Z,82.49
2022-09-22T16:20:15.851Z,82.01
2022-09-22T16:22:45.465Z,81.25
2022-09-22T16:25:12.767Z,80.59
2022-09-22T16:27:39.545Z,80.28
2022-09-22T16:30:07.005Z,79.89
2022-09-22T16:32:34.088Z,79.94
2022-09-22T16:35:00.770Z,80.09
2022-09-22T16:37:29.255Z,79.80
2022-09-22T16:39:56.311Z,79.80
2022-09-22T16:42:23.859Z,79.66
2022-09-22T16:44:50.846Z,80.13
2022-09-22T16:47:21.217Z,80.19
2022-09-22T16:49:49.650Z,80.08
2022-09-22T16:52:16.816Z,79.95
2022-09-22T16:54:44.150Z,80.59
2022-09-22T16:57:10.847Z,80.39
2022-09-22T16:59:38.098Z,80.45
2022-09-22T17:02:05.127Z,80.94
2022-09-22T17:04:32.437Z,81.14
2022-09-22T17:06:59.331Z,80.79
2022-09-22T17:09:26.107Z,80.54
2022-09-22T17:11:53.722Z,80.52
2022-09-22T17:14:24.542Z,80.70
2022-09-22T17:16:55.465Z,80.76
2022-09-22T17:19:27.646Z,80.82
2022-09-22T17:21:56.498Z,80.90
2022-09-22T17:24:24.809Z,81.10
2022-09-22T17:26:53.973Z,81.13
2022-09-22T17:29:26.519Z,81.10
2022-09-22T17:31:57.461Z,81.27
2022-09-22T17:34:25.591Z,81.42
2022-09-22T17:36:55.473Z,81.54
2022-09-22T17:39:27.239Z,81.67
2022-09-22T17:41:55.244Z,81.84
2022-09-22T17:44:22.084Z,81.94
2022-09-22T17:47:11.572Z,82.10
2022-09-22T17:49:59.383Z,82.10
2022-09-22T17:52:29.764Z,82.26
2022-09-22T17:55:07.280Z,82.41
2022-09-22T17:57:39.333Z,82.70
2022-09-22T18:00:07.497Z,82.64
2022-09-22T18:02:39.055Z,82.81
2022-09-22T18:05:14.599Z,83.37
2022-09-22T18:07:41.935Z,83.30
2022-09-22T18:10:11.044Z,83.75
2022-09-22T18:12:37.967Z,83.82
2022-09-22T18:15:05.591Z,83.95
2022-09-22T18:17:41.338Z,84.09
2022-09-22T18:20:20.760Z,84.45
2022-09-22T18:22:48.603Z,84.58
2022-09-22T18:25:19.705Z,85.19
2022-09-22T18:27:48.783Z,85.24
2022-09-22T18:30:17.115Z,85.47
2022-09-22T18:32:44.160Z,85.68
2022-09-22T18:35:12.955Z,86.11
2022-09-22T18:37:41.134Z,86.40
2022-09-22T18:40:09.378Z,86.77
2022-09-22T18:42:36.858Z,86.92
2022-09-22T18:45:04.216Z,87.17
2022-09-22T18:47:30.949Z,87.37
2022-09-22T18:49:59.290Z,87.59
2022-09-22T18:52:27.765Z,87.71
2022-09-22T18:54:54.735Z,87.79
2022-09-22T18:57:27.339Z,88.04
2022-09-22T18:59:57.755Z,88.10
2022-09-22T19:02:29.147Z,88.13
2022-09-22T19:04:55.878Z,88.02
2022-09-22T19:07:52.109Z,88.04
2022-09-22T19:10:23.509Z,88.25
2022-09-22T19:12:50.416Z,88.24
2022-09-22T19:15:19.084Z,88.27
2022-09-22T19:17:49.725Z,88.61
2022-09-22T19:20:21.333Z,88.61
2022-09-22T19:22:50.552Z,88.84
2022-09-22T19:25:20.175Z,88.73
2022-09-22T19:27:47.058Z,88.73
2022-09-22T19:30:14.106Z,88.71
2022-09-22T19:32:41.380Z,88.71
2022-09-22T19:35:08.857Z,88.83
2022-09-22T19:37:36.409Z,89.01
2022-09-22T19:40:05.490Z,88.97
2022-09-22T19:42:32.530Z,88.93
2022-09-22T19:45:00.354Z,88.95
2022-09-22T19:47:27.052Z,89.00
2022-09-22T19:49:55.073Z,88.93
2022-09-22T19:52:21.975Z,89.08
2022-09-22T19:54:48.673Z,88.95
2022-09-22T19:57:16.438Z,89.10
2022-09-22T19:59:43.129Z,88.97
2022-09-22T20:02:14.473Z,88.83
2022-09-22T20:04:41.638Z,88.94
2022-09-22T20:07:08.646Z,88.68
2022-09-22T20:09:35.693Z,88.84
2022-09-22T20:12:02.683Z,88.65
2022-09-22T20:14:31.544Z,88.92
2022-09-22T20:17:04.125Z,88.73
2022-09-22T20:19:35.276Z,88.83
2022-09-22T20:22:17.580Z,88.63
2022-09-22T20:24:50.399Z,88.62
2022-09-22T20:27:17.274Z,88.32
2022-09-22T20:29:44.064Z,88.32
2022-09-22T20:32:10.939Z,88.35
2022-09-22T20:34:38.006Z,88.32
2022-09-22T20:37:04.710Z,88.26
2022-09-22T20:39:32.740Z,88.34
2022-09-22T20:41:59.878Z,88.29
2022-09-22T20:44:26.522Z,88.09
2022-09-22T20:46:53.213Z,88.08
2022-09-22T20:49:20.105Z,88.25
2022-09-22T20:51:47.562Z,88.19
2022-09-22T20:54:14.481Z,88.05
2022-09-22T20:56:42.961Z,88.02
2022-09-22T20:59:10.327Z,88.08
2022-09-22T21:01:37.190Z,87.88
2022-09-22T21:04:04.028Z,87.72
2022-09-22T21:06:31.203Z,87.79
2022-09-22T21:09:16.635Z,87.70
2022-09-22T21:11:44.181Z,87.68
2022-09-22T21:14:11.315Z,87.34
2022-09-22T21:16:40.093Z,87.47
2022-09-22T21:19:08.289Z,87.57
2022-09-22T21:21:38.482Z,87.50
2022-09-22T21:24:05.474Z,87.61
2022-09-22T21:26:33.204Z,87.59
2022-09-22T21:29:00.290Z,87.65
2022-09-22T21:31:27.406Z,87.44
2022-09-22T21:33:54.787Z,87.57
2022-09-22T21:36:23.117Z,87.35
2022-09-22T21:38:55.813Z,87.52
2022-09-22T21:41:25.541Z,87.51
2022-09-22T21:43:52.746Z,87.49
2022-09-22T21:46:22.276Z,87.35
2022-09-22T21:48:49.265Z,87.40
2022-09-22T21:51:22.334Z,87.33
2022-09-22T21:53:52.266Z,87.23
2022-09-22T21:56:20.803Z,87.23
2022-09-22T21:58:50.212Z,87.14
2022-09-22T22:01:19.460Z,87.24
2022-09-22T22:03:47.420Z,86.87
2022-09-22T22:06:14.105Z,86.86
2022-09-22T22:08:51.418Z,86.86
2022-09-22T22:11:23.530Z,87.00
2022-09-22T22:13:52.329Z,87.00
2022-09-22T22:16:25.825Z,86.83
2022-09-22T22:18:53.058Z,86.92
2022-09-22T22:21:25.051Z,86.76
2022-09-22T22:23:55.109Z,86.68
2022-09-22T22:26:25.212Z,86.82
2022-09-22T22:28:52.981Z,86.93
2022-09-22T22:31:22.855Z,86.51
2022-09-22T22:33:50.818Z,86.54
2022-09-22T22:36:19.816Z,86.61
2022-09-22T22:38:46.529Z,86.22
2022-09-22T22:41:17.296Z,86.38
2022-09-22T22:43:44.664Z,86.40
2022-09-22T22:46:16.326Z,86.42
2022-09-22T22:48:44.071Z,86.28
2022-09-22T22:51:14.343Z,86.33
2022-09-22T22:53:43.505Z,86.21
2022-09-22T22:56:13.574Z,86.56
2022-09-22T22:58:40.340Z,86.42
2022-09-22T23:01:19.575Z,86.30
2022-09-22T23:03:50.296Z,86.51
2022-09-22T23:06:21.161Z,86.37
2022-09-22T23:08:49.156Z,86.46
2022-09-22T23:11:37.254Z,86.46
2022-09-22T23:14:06.277Z,86.33
2022-09-22T23:16:37.518Z,86.27
2022-09-22T23:19:07.644Z,86.32
2022-09-22T23:21:36.220Z,86.13
2022-09-22T23:24:04.053Z,85.87
2022-09-22T23:26:30.937Z,85.82
2022-09-22T23:29:02.113Z,85.98
2022-09-22T23:31:28.941Z,85.69
2022-09-22T23:33:57.655Z,85.76
2022-09-22T23:36:27.781Z,86.02
2022-09-22T23:39:04.750Z,85.57
2022-09-22T23:41:33.285Z,85.98
2022-09-22T23:44:00.452Z,85.86
2022-09-22T23:46:28.637Z,85.97
2022-09-22T23:48:55.823Z,85.99
2022-09-22T23:51:24.693Z,86.17
2022-09-22T23:53:51.827Z,86.13
2022-09-22T23:56:19.807Z,86.01
2022-09-22T23:58:46.674Z,85.88
